Time;durP1;ratioP1;P1;durP2;ratioP2;P2;SDS_P1;SDS_P2;PMS_P1;PMS_P2;Temp;Humidity;BMP_temperature;BMP_pressure;BME280_temperature;BME280_humidity;BME280_pressure;Samples;Min_cycle;Max_cycle;Signal;HPM_P1;HPM_P2
2022/01/21 00:00:55;;;;;;;3.92;1.20;;;;;;;3.53;61.54;98548.38;4934810;28;20278;-88
2022/01/21 00:03:21;;;;;;;5.90;1.27;;;;;;;3.64;60.84;98561.88;4935682;28;20216;-87
2022/01/21 00:05:46;;;;;;;10.80;3.20;;;;;;;3.62;60.98;98561.22;4930749;28;20690;-87
2022/01/21 00:08:11;;;;;;;5.55;1.30;;;;;;;3.58;61.09;98560.72;4959569;28;20181;-87
2022/01/21 00:10:37;;;;;;;4.35;1.42;;;;;;;3.51;61.97;98555.47;4937773;28;20159;-88
2022/01/21 00:13:04;;;;;;;4.97;1.70;;;;;;;3.50;60.92;98540.97;4938483;28;20197;-87
2022/01/21 00:15:30;;;;;;;3.05;1.10;;;;;;;3.60;61.25;98550.28;4918762;28;20177;-88
2022/01/21 00:17:55;;;;;;;4.90;1.20;;;;;;;3.58;60.44;98547.06;4935940;28;20204;-88
2022/01/21 00:31:16;;;;;;;8.80;3.50;;;;;;;3.65;62.94;98558.31;4951810;28;20178;-87
2022/01/21 00:33:42;;;;;;;5.75;3.60;;;;;;;3.62;62.73;98556.88;4935084;28;20266;-88
2022/01/21 00:36:08;;;;;;;20.90;8.00;;;;;;;3.50;62.76;98553.84;4938573;28;20326;-88
2022/01/21 00:38:34;;;;;;;6.32;3.28;;;;;;;3.48;63.32;98545.50;4950747;28;20095;-88
2022/01/21 00:41:03;;;;;;;9.88;3.13;;;;;;;3.43;63.46;98555.47;4951687;28;20301;-87
2022/01/21 00:43:33;;;;;;;6.20;1.40;;;;;;;3.44;62.63;98556.28;4934680;28;20332;-87
2022/01/21 00:46:02;;;;;;;1.75;0.85;;;;;;;3.48;62.25;98545.50;4951377;28;20173;-88
2022/01/21 00:48:28;;;;;;;27.27;13.10;;;;;;;3.58;62.31;98549.63;4934587;28;20317;-87
2022/01/21 00:50:54;;;;;;;34.80;15.30;;;;;;;3.49;62.50;98552.22;4950181;28;20293;-88
2022/01/21 00:53:19;;;;;;;19.75;8.95;;;;;;;3.37;63.51;98546.63;4948391;28;20736;-87
2022/01/21 00:55:45;;;;;;;26.35;11.13;;;;;;;3.55;62.91;98561.88;4917648;28;20301;-87
2022/01/21 00:58:10;;;;;;;11.43;5.40;;;;;;;3.53;62.77;98563.00;4918419;28;20195;-86
2022/01/21 01:00:36;;;;;;;4.45;1.15;;;;;;;3.47;62.24;98548.22;4931409;28;20177;-87
2022/01/21 01:03:02;;;;;;;3.42;1.35;;;;;;;3.50;61.78;98558.19;4928461;28;20629;-87
2022/01/21 01:05:28;;;;;;;4.70;1.33;;;;;;;3.56;61.93;98562.69;4951137;28;20156;-88
2022/01/21 01:07:58;;;;;;;4.53;1.40;;;;;;;3.55;62.76;98568.81;4934869;28;20311;-88
2022/01/21 01:10:39;;;;;;;4.38;1.15;;;;;;;3.51;62.54;98555.47;4933902;28;20267;-87
2022/01/21 01:21:18;;;;;;;6.22;1.23;;;;;;;3.60;62.52;98565.72;4946597;28;20201;-88
2022/01/21 01:29:12;;;;;;;17.48;6.20;;;;;;;3.48;64.19;98568.66;4950250;28;20199;-87
2022/01/21 01:31:37;;;;;;;24.92;9.20;;;;;;;3.36;64.06;98570.78;4917595;28;20256;-88
2022/01/21 01:34:03;;;;;;;22.17;6.10;;;;;;;3.29;63.88;98561.28;4934978;28;20702;-88
2022/01/21 01:36:29;;;;;;;32.72;12.30;;;;;;;3.35;63.67;98576.06;4918308;28;20165;-88
2022/01/21 01:39:11;;;;;;;14.30;5.03;;;;;;;3.17;63.67;98566.78;4930388;28;20256;-88
2022/01/21 01:41:50;;;;;;;33.97;13.07;;;;;;;3.22;64.13;98586.84;4947642;28;20624;-88
2022/01/21 01:49:44;;;;;;;33.58;13.07;;;;;;;3.08;64.56;98595.25;4935741;28;20567;-88
2022/01/21 01:52:12;;;;;;;8.40;3.75;;;;;;;3.06;64.34;98603.09;4898134;28;20106;-88
2022/01/21 01:54:43;;;;;;;6.85;2.08;;;;;;;3.06;64.61;98608.25;4920135;28;20208;-90
2022/01/21 01:57:14;;;;;;;4.57;1.10;;;;;;;3.03;64.41;98585.41;4937211;28;20262;-88
2022/01/21 01:59:43;;;;;;;5.45;1.40;;;;;;;3.14;63.90;98592.03;4962918;28;20647;-89
2022/01/21 02:02:14;;;;;;;5.65;1.30;;;;;;;3.06;64.54;98577.38;4933107;28;20219;-89
2022/01/21 02:04:43;;;;;;;4.50;1.73;;;;;;;3.14;64.56;98585.09;4940532;28;20283;-88
2022/01/21 02:07:10;;;;;;;4.03;1.27;;;;;;;3.19;64.60;98593.16;4931042;28;20174;-88
2022/01/21 02:09:36;;;;;;;2.72;1.02;;;;;;;3.29;64.23;98593.00;4915877;28;20169;-89
2022/01/21 02:12:04;;;;;;;6.22;1.67;;;;;;;3.24;63.61;98591.84;4914710;28;20623;-89
2022/01/21 02:14:34;;;;;;;10.70;1.73;;;;;;;3.37;62.93;98594.75;4934119;28;20196;-88
2022/01/21 02:22:22;;;;;;;2.87;1.60;;;;;;;3.30;63.06;98575.75;4949821;28;20795;-88
2022/01/21 02:24:52;;;;;;;5.57;1.30;;;;;;;3.37;63.38;98571.56;4930314;28;20889;-88
2022/01/21 02:27:19;;;;;;;15.55;5.28;;;;;;;3.28;63.59;98568.19;4931587;28;20294;-88
2022/01/21 02:30:00;;;;;;;12.50;4.90;;;;;;;3.25;64.36;98585.75;4936432;28;20196;-88
2022/01/21 02:32:26;;;;;;;5.53;2.10;;;;;;;3.23;63.64;98578.19;4937041;28;20751;-88
2022/01/21 02:34:52;;;;;;;4.35;1.10;;;;;;;3.32;63.25;98581.56;4937753;28;20149;-88
2022/01/21 02:37:20;;;;;;;10.38;2.90;;;;;;;3.22;63.59;98586.06;4933978;28;20192;-89
2022/01/21 02:39:47;;;;;;;21.25;8.13;;;;;;;3.18;63.93;98596.66;4912977;28;20349;-89
2022/01/21 02:42:13;;;;;;;7.55;3.10;;;;;;;3.17;64.19;98589.94;4916800;28;20765;-88
2022/01/21 02:44:39;;;;;;;4.75;1.65;;;;;;;3.17;63.91;98592.50;4911680;28;20192;-89
2022/01/21 02:47:06;;;;;;;8.48;2.25;;;;;;;2.99;64.10;98572.06;4965903;28;20327;-89
2022/01/21 02:49:32;;;;;;;6.60;2.08;;;;;;;3.01;64.66;98584.78;4912869;28;20181;-88
2022/01/21 02:52:01;;;;;;;5.20;1.65;;;;;;;3.06;64.54;98592.81;4930022;28;20241;-89
2022/01/21 02:54:30;;;;;;;3.25;1.00;;;;;;;3.09;63.85;98596.84;4921603;28;20090;-89
2022/01/21 02:56:57;;;;;;;4.75;1.20;;;;;;;3.10;64.28;98604.41;4932525;28;20200;-89
2022/01/21 02:59:23;;;;;;;3.70;1.25;;;;;;;3.04;64.36;98614.53;4916186;28;20248;-89
2022/01/21 03:01:49;;;;;;;5.20;1.40;;;;;;;2.93;64.56;98602.78;4914125;28;20676;-88
2022/01/21 03:04:36;;;;;;;4.75;1.40;;;;;;;2.86;65.15;98601.81;4930391;28;20083;-91
2022/01/21 03:07:04;;;;;;;3.65;1.30;;;;;;;2.89;64.38;98610.00;4945864;28;20189;-89
2022/01/21 03:09:37;;;;;;;7.40;1.45;;;;;;;3.02;64.03;98595.88;4935924;28;20179;-88
2022/01/21 03:12:06;;;;;;;6.05;1.23;;;;;;;2.89;63.49;98580.91;4934607;28;20245;-89
2022/01/21 03:14:33;;;;;;;4.15;1.20;;;;;;;2.94;63.76;98588.97;4934760;28;20732;-88
2022/01/21 03:17:00;;;;;;;3.95;1.23;;;;;;;3.09;63.61;98610.50;4950037;28;20197;-88
2022/01/21 03:19:26;;;;;;;4.35;1.13;;;;;;;3.09;63.16;98607.94;4921024;28;20110;-88
2022/01/21 03:21:58;;;;;;;7.53;1.60;;;;;;;2.97;63.48;98597.16;4953144;28;20253;-89
2022/01/21 03:24:24;;;;;;;4.82;1.80;;;;;;;3.10;63.44;98601.03;4935733;28;20346;-89
2022/01/21 03:26:50;;;;;;;6.82;1.50;;;;;;;2.97;63.61;98583.50;4939601;28;20460;-89
2022/01/21 03:29:16;;;;;;;3.85;1.50;;;;;;;3.07;63.55;98602.16;4936575;28;20639;-89
2022/01/21 03:31:42;;;;;;;5.03;1.15;;;;;;;3.03;63.33;98576.91;4955893;28;20232;-89
2022/01/21 03:34:07;;;;;;;4.72;1.10;;;;;;;2.94;63.38;98596.69;4931698;28;20285;-89
2022/01/21 03:36:32;;;;;;;8.60;2.60;;;;;;;2.92;63.40;98609.69;4935946;28;20284;-88
2022/01/21 03:38:59;;;;;;;7.68;1.90;;;;;;;2.84;64.46;98614.81;4941217;28;20731;-89
2022/01/21 03:41:24;;;;;;;8.07;2.30;;;;;;;2.68;64.34;98605.31;4922453;28;20567;-89
2022/01/21 03:43:51;;;;;;;3.90;1.25;;;;;;;2.82;64.64;98619.34;4931576;28;20212;-89
2022/01/21 03:46:17;;;;;;;3.03;1.05;;;;;;;2.85;64.50;98621.59;4936912;28;20180;-88
2022/01/21 03:48:47;;;;;;;10.70;2.33;;;;;;;2.80;63.96;98606.63;4941016;28;20219;-89
2022/01/21 03:51:13;;;;;;;6.13;1.30;;;;;;;2.89;63.94;98617.72;4933983;28;20604;-89
2022/01/21 03:53:38;;;;;;;5.13;1.15;;;;;;;2.86;63.55;98612.09;4921259;28;20181;-89
2022/01/21 03:56:04;;;;;;;5.85;1.70;;;;;;;2.82;63.84;98611.63;4936864;28;20197;-89
2022/01/21 03:58:29;;;;;;;7.05;1.88;;;;;;;2.89;63.46;98624.66;4924206;28;20181;-89
2022/01/21 04:00:56;;;;;;;3.40;1.58;;;;;;;2.76;64.31;98607.09;4918833;28;20283;-88
2022/01/21 04:03:23;;;;;;;6.50;1.77;;;;;;;2.79;64.12;98617.06;4931731;28;20205;-89
2022/01/21 04:05:53;;;;;;;4.45;1.50;;;;;;;2.71;64.55;98610.16;4930310;28;20662;-89
2022/01/21 04:08:22;;;;;;;4.63;1.30;;;;;;;2.86;65.13;98636.03;4935529;28;20223;-89
2022/01/21 04:10:48;;;;;;;3.03;1.15;;;;;;;2.81;64.89;98633.97;4931254;28;20271;-89
2022/01/21 04:13:16;;;;;;;8.52;1.92;;;;;;;2.79;65.11;98637.66;4931979;28;20155;-89
2022/01/21 04:15:43;;;;;;;6.20;1.60;;;;;;;2.68;63.93;98612.25;4921317;28;20176;-89
2022/01/21 04:18:10;;;;;;;8.77;2.25;;;;;;;2.93;63.87;98641.38;4920687;28;20157;-89
2022/01/21 04:20:36;;;;;;;3.95;1.67;;;;;;;2.76;63.76;98618.22;4914960;28;20262;-89
2022/01/21 04:23:01;;;;;;;4.85;1.48;;;;;;;2.76;63.90;98610.50;4935461;28;20314;-89
2022/01/21 04:25:27;;;;;;;5.90;1.40;;;;;;;2.88;63.84;98630.75;4937820;28;20441;-89
2022/01/21 04:27:52;;;;;;;4.10;1.52;;;;;;;2.74;63.72;98609.03;4927904;28;20208;-89
2022/01/21 04:30:18;;;;;;;7.55;2.72;;;;;;;2.87;62.99;98626.59;4935163;28;20197;-89
2022/01/21 04:32:43;;;;;;;6.53;1.60;;;;;;;2.84;63.40;98635.41;4935406;28;20626;-89
2022/01/21 04:35:08;;;;;;;7.35;1.30;;;;;;;2.71;63.96;98628.16;4938828;28;20535;-88
2022/01/21 04:37:37;;;;;;;5.07;1.85;;;;;;;2.79;64.32;98637.66;4933350;28;20193;-89
2022/01/21 04:40:11;;;;;;;5.50;1.30;;;;;;;2.62;64.28;98635.06;4919904;28;20212;-88
2022/01/21 04:48:05;;;;;;;4.32;1.80;;;;;;;2.76;63.10;98627.66;4937603;28;20665;-89
2022/01/21 04:50:40;;;;;;;5.70;1.10;;;;;;;2.70;63.84;98626.53;4917964;28;20611;-89
2022/01/21 04:53:06;;;;;;;;;;;;;;;2.40;64.86;98646.72;4920284;28;20137;-89
2022/01/21 04:55:33;;;;;;;4.95;1.35;;;;;;;2.57;64.58;98644.19;4918886;28;20126;-89
2022/01/21 04:57:59;;;;;;;4.13;1.63;;;;;;;2.48;65.16;98645.13;4948886;28;20213;-89
2022/01/21 05:00:24;;;;;;;7.45;1.75;;;;;;;2.42;65.07;98647.38;4941578;28;20169;-89
2022/01/21 05:02:50;;;;;;;6.38;2.00;;;;;;;2.46;65.49;98641.91;4951693;28;20213;-88
2022/01/21 05:05:15;;;;;;;9.45;1.85;;;;;;;2.45;65.11;98646.25;4917456;28;20623;-88
2022/01/21 05:07:42;;;;;;;4.15;1.58;;;;;;;2.54;65.04;98658.16;4951089;28;20189;-88
2022/01/21 05:10:08;;;;;;;5.68;1.92;;;;;;;2.52;64.96;98636.97;4932051;28;20230;-89
2022/01/21 05:12:34;;;;;;;4.35;1.40;;;;;;;2.66;64.33;98653.53;4933441;28;20263;-88
2022/01/21 05:17:25;;;;;;;6.63;1.90;;;;;;;2.76;64.15;98638.78;4935178;28;20311;-89
2022/01/21 05:19:52;;;;;;;7.00;1.88;;;;;;;2.70;64.19;98636.81;4931721;28;20619;-88
2022/01/21 05:22:17;;;;;;;7.53;1.80;;;;;;;2.83;63.28;98638.13;4928923;28;20170;-89
2022/01/21 05:24:43;;;;;;;6.60;1.80;;;;;;;2.88;63.85;98662.44;4930963;28;20157;-89
2022/01/21 05:27:12;;;;;;;7.65;2.05;;;;;;;2.79;63.51;98638.47;4933409;28;20267;-90
2022/01/21 05:29:44;;;;;;;6.40;1.48;;;;;;;2.71;63.40;98641.03;4919099;28;20623;-91
2022/01/21 05:32:11;;;;;;;5.50;1.83;;;;;;;2.88;62.99;98634.16;4957610;28;20082;-91
2022/01/21 05:34:43;;;;;;;4.38;1.50;;;;;;;2.74;64.23;98632.16;4934610;28;20181;-91
2022/01/21 05:37:12;;;;;;;4.47;1.55;;;;;;;2.78;63.52;98631.72;4968640;28;20204;-91
2022/01/21 05:39:40;;;;;;;6.50;1.25;;;;;;;2.80;63.75;98645.22;4930155;28;20316;-91
2022/01/21 05:42:07;;;;;;;3.17;1.27;;;;;;;2.84;63.63;98660.34;4933461;28;20157;-89
2022/01/21 05:47:00;;;;;;;8.77;1.83;;;;;;;2.65;63.27;98648.56;4935551;28;20242;-90
2022/01/21 05:49:30;;;;;;;7.78;1.95;;;;;;;2.84;62.74;98673.19;4923336;28;20283;-91
2022/01/21 05:52:04;;;;;;;5.72;1.15;;;;;;;2.89;63.59;98676.09;4949169;28;20239;-88
2022/01/21 05:54:30;;;;;;;3.90;1.30;;;;;;;2.87;63.23;98663.38;4939028;28;20642;-89
2022/01/21 05:56:57;;;;;;;5.50;1.73;;;;;;;2.96;62.96;98679.66;4929788;28;20704;-90
2022/01/21 05:59:22;;;;;;;6.88;1.50;;;;;;;2.91;63.68;98669.03;4917339;28;20184;-89
2022/01/21 06:01:48;;;;;;;7.78;1.48;;;;;;;2.89;63.49;98660.66;4933335;28;20216;-88
2022/01/21 06:04:13;;;;;;;3.67;1.60;;;;;;;2.84;63.16;98666.28;4949354;28;20538;-89
2022/01/21 06:06:39;;;;;;;3.88;1.90;;;;;;;2.92;63.04;98663.72;4931681;28;20343;-89
2022/01/21 06:09:06;;;;;;;9.07;2.08;;;;;;;2.99;62.73;98669.03;4911481;28;20175;-89
2022/01/21 06:11:32;;;;;;;3.50;1.40;;;;;;;2.98;62.56;98683.69;4933367;28;20634;-91
2022/01/21 06:13:59;;;;;;;4.45;1.52;;;;;;;2.97;63.04;98682.06;4915045;28;20733;-89
2022/01/21 06:16:25;;;;;;;7.00;1.52;;;;;;;2.91;63.19;98666.44;4933920;28;20678;-90
2022/01/21 06:18:50;;;;;;;7.10;2.03;;;;;;;2.89;63.16;98669.19;4923233;28;20183;-89
2022/01/21 06:21:36;;;;;;;5.22;2.13;;;;;;;2.88;63.25;98672.72;4941351;28;20587;-89
2022/01/21 06:24:02;;;;;;;10.52;2.00;;;;;;;2.81;63.31;98662.25;4929542;28;20178;-88
2022/01/21 06:26:27;;;;;;;4.03;1.42;;;;;;;2.93;63.35;98693.66;4919825;28;20200;-89
2022/01/21 06:28:53;;;;;;;7.30;1.50;;;;;;;2.88;63.26;98697.63;4949084;28;20273;-89
2022/01/21 06:31:18;;;;;;;6.80;1.58;;;;;;;2.83;62.91;98694.72;4949314;28;20241;-89
2022/01/21 06:33:43;;;;;;;3.58;1.55;;;;;;;2.93;63.30;98709.09;4931273;28;20191;-89
2022/01/21 06:36:09;;;;;;;6.80;2.13;;;;;;;2.91;63.09;98692.97;4926924;28;20247;-88
2022/01/21 06:38:35;;;;;;;6.43;1.88;;;;;;;3.00;63.26;98698.97;4933609;28;20293;-88
2022/01/21 06:41:01;;;;;;;3.78;1.58;;;;;;;3.05;63.92;98704.44;4929682;28;20192;-89
2022/01/21 06:43:27;;;;;;;7.53;1.80;;;;;;;2.92;63.38;98680.94;4965908;28;20220;-89
2022/01/21 06:45:52;;;;;;;6.35;1.27;;;;;;;3.10;62.93;98709.94;4935713;28;20191;-89
2022/01/21 06:48:18;;;;;;;6.82;1.83;;;;;;;3.08;63.81;98704.09;4966558;28;20238;-89
2022/01/21 06:50:43;;;;;;;4.72;1.58;;;;;;;3.10;62.92;98707.34;4915978;28;20605;-89
2022/01/21 06:53:09;;;;;;;6.10;1.40;;;;;;;3.03;64.08;98700.41;4935896;28;20282;-89
2022/01/21 06:55:35;;;;;;;7.07;2.33;;;;;;;3.05;64.71;98713.91;4923367;28;20145;-88
2022/01/21 06:58:01;;;;;;;4.32;0.95;;;;;;;2.99;64.89;98720.50;4915219;28;20299;-88
2022/01/21 07:00:26;;;;;;;5.68;1.92;;;;;;;2.98;64.67;98729.16;4954003;28;20161;-89
2022/01/21 07:02:52;;;;;;;8.13;2.63;;;;;;;2.92;64.55;98728.03;4937047;28;20264;-89
2022/01/21 07:05:19;;;;;;;6.95;2.38;;;;;;;2.91;64.87;98729.00;4918371;28;20737;-89
2022/01/21 07:07:45;;;;;;;4.82;1.67;;;;;;;2.77;64.77;98717.53;4931354;28;20272;-89
2022/01/21 07:10:12;;;;;;;4.45;2.17;;;;;;;2.70;64.95;98719.13;4928214;28;20740;-89
2022/01/21 07:12:38;;;;;;;6.88;2.00;;;;;;;2.83;64.88;98738.44;4919793;28;20192;-88
2022/01/21 07:15:06;;;;;;;7.30;1.63;;;;;;;2.80;65.22;98747.31;4931855;28;20193;-89
2022/01/21 07:17:31;;;;;;;7.82;1.90;;;;;;;2.62;64.85;98730.19;4935901;28;20286;-88
2022/01/21 07:19:57;;;;;;;5.97;1.65;;;;;;;2.79;64.76;98741.34;4914744;28;20743;-88
2022/01/21 07:22:22;;;;;;;3.47;1.38;;;;;;;2.72;64.07;98719.78;4959286;28;20211;-88
2022/01/21 07:24:48;;;;;;;5.25;1.50;;;;;;;2.86;63.92;98741.50;4935566;28;20183;-88
2022/01/21 07:27:13;;;;;;;7.18;2.15;;;;;;;2.84;63.67;98737.50;4939061;28;20430;-89
2022/01/21 07:29:39;;;;;;;7.15;1.50;;;;;;;2.91;63.70;98754.72;4938422;28;20152;-89
2022/01/21 07:32:05;;;;;;;7.05;1.95;;;;;;;2.99;63.63;98751.38;4935092;28;20280;-89
2022/01/21 07:34:30;;;;;;;4.55;2.38;;;;;;;2.95;63.37;98748.31;4934981;28;20699;-89
2022/01/21 07:36:56;;;;;;;7.72;2.15;;;;;;;3.00;63.96;98745.28;4935609;28;20133;-88
2022/01/21 07:39:22;;;;;;;8.57;2.15;;;;;;;3.06;63.82;98751.56;4934753;28;20242;-88
2022/01/21 07:41:47;;;;;;;5.18;2.08;;;;;;;2.99;64.26;98744.47;4920075;28;20658;-88
2022/01/21 07:44:13;;;;;;;5.47;1.77;;;;;;;2.94;64.71;98736.41;4935566;28;20191;-88
2022/01/21 07:46:43;;;;;;;4.45;1.88;;;;;;;2.89;65.46;98740.41;4934651;28;20348;-88
2022/01/21 07:49:09;;;;;;;6.40;2.55;;;;;;;2.92;65.10;98733.19;4933782;28;20650;-88
2022/01/21 07:51:35;;;;;;;4.22;1.30;;;;;;;3.04;65.70;98749.16;4926526;28;20209;-88
2022/01/21 07:54:02;;;;;;;7.38;1.75;;;;;;;3.03;65.14;98747.53;4934243;28;20290;-88
2022/01/21 07:56:28;;;;;;;8.57;2.92;;;;;;;3.12;65.21;98764.63;4919036;28;20651;-88
2022/01/21 07:58:54;;;;;;;5.18;1.60;;;;;;;3.11;64.69;98763.00;4919511;28;20137;-88
2022/01/21 08:01:19;;;;;;;4.68;2.22;;;;;;;3.19;64.41;98754.50;4934151;28;20340;-89
2022/01/21 08:03:45;;;;;;;4.03;1.42;;;;;;;3.18;63.70;98745.94;4917289;28;20683;-89
2022/01/21 08:06:10;;;;;;;6.20;1.70;;;;;;;3.16;63.78;98745.31;4912308;28;20200;-89
2022/01/21 08:08:36;;;;;;;4.85;1.90;;;;;;;3.17;64.01;98764.94;4934899;28;20626;-89
2022/01/21 08:11:04;;;;;;;7.05;1.92;;;;;;;2.98;63.79;98740.28;4910308;28;20189;-90
2022/01/21 08:13:31;;;;;;;7.68;1.70;;;;;;;3.05;64.38;98749.94;4951820;28;20701;-89
2022/01/21 08:15:56;;;;;;;9.10;1.63;;;;;;;2.97;63.97;98737.88;4935085;28;20269;-89
2022/01/21 08:18:22;;;;;;;6.63;1.90;;;;;;;3.15;63.88;98755.75;4935694;28;20258;-91
2022/01/21 08:20:48;;;;;;;5.68;1.55;;;;;;;3.03;64.10;98741.56;4915905;28;20254;-89
2022/01/21 08:23:14;;;;;;;6.78;2.40;;;;;;;3.06;63.91;98746.41;4919780;28;20204;-88
2022/01/21 08:25:40;;;;;;;7.68;2.03;;;;;;;3.11;64.09;98744.97;4932906;28;20196;-88
2022/01/21 08:28:06;;;;;;;6.22;1.70;;;;;;;3.10;63.83;98737.41;4950678;28;20295;-88
2022/01/21 08:30:31;;;;;;;4.95;2.35;;;;;;;3.09;64.43;98735.81;4917593;28;20173;-88
2022/01/21 08:32:57;;;;;;;4.47;1.85;;;;;;;3.22;64.19;98758.50;4916363;28;20357;-88
2022/01/21 08:35:23;;;;;;;4.32;2.35;;;;;;;3.21;64.39;98741.47;4933066;28;20276;-90
2022/01/21 08:37:52;;;;;;;5.03;1.90;;;;;;;3.24;64.43;98748.84;4909801;28;20221;-88
2022/01/21 08:40:18;;;;;;;9.90;3.33;;;;;;;3.32;64.52;98752.25;4950517;28;20258;-88
2022/01/21 08:42:43;;;;;;;8.00;4.05;;;;;;;3.38;64.19;98758.56;4918932;28;20224;-88
2022/01/21 08:45:11;;;;;;;6.57;3.15;;;;;;;3.36;63.93;98757.91;4927631;28;20283;-88
2022/01/21 08:47:36;;;;;;;12.77;4.70;;;;;;;3.40;64.09;98764.34;4915226;28;20209;-88
2022/01/21 08:50:06;;;;;;;16.05;6.53;;;;;;;3.49;63.95;98781.41;4918623;28;20153;-88
2022/01/21 08:52:36;;;;;;;13.93;4.80;;;;;;;3.42;63.74;98782.22;4934561;28;20223;-88
2022/01/21 08:55:01;;;;;;;10.15;3.60;;;;;;;3.45;63.97;98787.84;4934016;28;20098;-89
2022/01/21 08:57:27;;;;;;;16.35;6.53;;;;;;;3.41;64.05;98765.97;4919039;28;20299;-87
2022/01/21 08:59:52;;;;;;;15.50;5.43;;;;;;;3.63;63.76;98789.47;4947747;28;20182;-88
2022/01/21 09:02:18;;;;;;;26.70;9.52;;;;;;;3.65;63.50;98777.22;4946441;28;20207;-87
2022/01/21 09:04:46;;;;;;;17.80;6.85;;;;;;;3.67;63.27;98783.06;4933773;28;20205;-88
2022/01/21 09:07:12;;;;;;;23.85;9.63;;;;;;;3.63;62.98;98779.16;4932063;28;20228;-88
2022/01/21 09:09:37;;;;;;;19.98;7.07;;;;;;;3.64;63.99;98791.09;4934085;28;20256;-87
2022/01/21 09:12:03;;;;;;;5.60;1.77;;;;;;;3.75;63.61;98794.16;4913898;28;20427;-87
2022/01/21 09:14:46;;;;;;;10.45;3.83;;;;;;;3.69;63.69;98794.00;4928484;28;20181;-89
2022/01/21 09:17:16;;;;;;;8.75;3.47;;;;;;;3.86;63.68;98792.25;4938537;28;20173;-87
2022/01/21 09:19:42;;;;;;;10.02;3.38;;;;;;;3.87;63.66;98781.78;4933644;28;20326;-88
2022/01/21 09:22:08;;;;;;;13.50;3.65;;;;;;;3.78;63.61;98766.47;4924383;28;20382;-87
2022/01/21 09:24:33;;;;;;;9.40;3.15;;;;;;;3.86;64.18;98779.34;4916846;28;20103;-87
2022/01/21 09:27:03;;;;;;;10.32;3.35;;;;;;;3.98;63.88;98787.56;4949612;28;20247;-88
2022/01/21 09:29:31;;;;;;;7.70;2.83;;;;;;;4.03;62.94;98790.47;4950038;28;20357;-87
2022/01/21 09:31:58;;;;;;;4.72;2.15;;;;;;;3.94;62.64;98782.72;4920366;28;20239;-88
2022/01/21 09:34:26;;;;;;;5.22;2.25;;;;;;;4.07;62.98;98799.47;4929926;28;20339;-87
2022/01/21 09:36:54;;;;;;;12.00;2.58;;;;;;;4.10;63.36;98805.09;4947703;28;20285;-87
2022/01/21 09:39:24;;;;;;;6.07;1.80;;;;;;;4.11;62.57;98800.75;4926451;28;20184;-88
2022/01/21 09:41:59;;;;;;;7.85;2.03;;;;;;;4.14;62.17;98808.16;4949737;28;20232;-87
2022/01/21 09:44:25;;;;;;;7.47;1.23;;;;;;;4.26;62.60;98821.53;4933686;28;20165;-87
2022/01/21 09:46:52;;;;;;;5.97;1.45;;;;;;;4.19;62.05;98785.28;4922411;28;20174;-87
2022/01/21 09:51:50;;;;;;;5.72;2.63;;;;;;;4.34;62.07;98795.75;4947157;28;20199;-86
2022/01/21 09:54:15;;;;;;;8.82;3.00;;;;;;;4.59;61.44;98801.66;4934866;28;20212;-85
2022/01/21 09:56:43;;;;;;;15.15;4.15;;;;;;;4.56;61.56;98807.16;4938368;28;20631;-87
2022/01/21 09:59:09;;;;;;;14.35;5.30;;;;;;;4.47;61.30;98787.47;4964565;28;20200;-86
2022/01/21 10:01:35;;;;;;;7.25;2.72;;;;;;;4.49;60.95;98780.41;4949266;28;20691;-86
2022/01/21 10:04:01;;;;;;;11.30;2.75;;;;;;;4.44;60.54;98782.69;4929709;28;20174;-86
2022/01/21 10:06:26;;;;;;;5.85;1.95;;;;;;;4.53;61.45;98802.31;4929917;28;20274;-86
2022/01/21 10:08:55;;;;;;;7.75;2.30;;;;;;;4.55;61.04;98797.78;4934002;28;20246;-85
2022/01/21 10:11:21;;;;;;;5.50;1.90;;;;;;;4.65;60.98;98806.16;4934315;28;20196;-86
2022/01/21 10:13:48;;;;;;;9.45;2.83;;;;;;;4.70;61.51;98805.66;4934641;28;20194;-86
2022/01/21 10:16:13;;;;;;;6.60;1.50;;;;;;;4.67;61.16;98804.19;4931209;28;20183;-86
2022/01/21 10:18:52;;;;;;;5.80;1.60;;;;;;;4.66;61.23;98802.59;4936511;28;20298;-85
2022/01/21 10:21:17;;;;;;;5.07;2.05;;;;;;;4.78;61.79;98804.81;4944823;28;20308;-86
2022/01/21 10:23:43;;;;;;;11.82;2.88;;;;;;;4.79;61.04;98803.84;4948828;28;20185;-86
2022/01/21 10:26:12;;;;;;;5.65;1.83;;;;;;;4.80;60.77;98802.91;4915322;28;20304;-86
2022/01/21 10:28:39;;;;;;;7.55;2.33;;;;;;;4.66;60.78;98797.44;4955080;28;20169;-85
2022/01/21 10:31:14;;;;;;;4.57;1.70;;;;;;;4.55;62.25;98805.53;4937359;28;20553;-85
2022/01/21 10:33:51;;;;;;;;;;;;;;;4.47;61.49;98798.63;4929637;28;20818;-88
2022/01/21 10:36:28;;;;;;;11.20;1.67;;;;;;;4.72;60.52;98802.91;4936031;28;20170;-86
2022/01/21 10:39:06;;;;;;;6.03;2.10;;;;;;;4.67;60.32;98804.19;4938489;28;20677;-85
2022/01/21 10:41:34;;;;;;;5.45;1.33;;;;;;;4.78;60.69;98797.06;4949049;28;20266;-88
2022/01/21 10:44:13;;;;;;;17.33;3.35;;;;;;;4.57;60.56;98795.84;4917689;28;20283;-87
2022/01/21 10:46:40;;;;;;;5.97;1.13;;;;;;;4.86;60.36;98799.63;4934853;28;20711;-85
2022/01/21 10:49:11;;;;;;;4.30;1.20;;;;;;;4.73;59.98;98792.44;4914110;28;20208;-87
2022/01/21 10:51:39;;;;;;;8.35;2.25;;;;;;;4.90;60.09;98800.09;4952344;28;20358;-85
2022/01/21 10:54:12;;;;;;;4.25;1.70;;;;;;;4.71;60.47;98794.34;4967905;28;20701;-85
2022/01/21 10:56:38;;;;;;;9.27;1.67;;;;;;;4.95;59.48;98790.91;4934826;28;20101;-85
2022/01/21 10:59:03;;;;;;;4.10;1.30;;;;;;;4.97;59.91;98801.84;4932064;28;20212;-85
2022/01/21 11:01:30;;;;;;;8.73;1.90;;;;;;;4.87;60.04;98788.34;4948083;28;20187;-85
2022/01/21 11:04:01;;;;;;;4.40;1.75;;;;;;;4.93;60.16;98810.09;4915463;28;20310;-85
2022/01/21 11:06:33;;;;;;;7.00;1.98;;;;;;;5.08;59.95;98805.84;4934515;28;20110;-85
2022/01/21 11:09:18;;;;;;;6.22;2.17;;;;;;;4.91;60.42;98794.78;4935756;28;20318;-84
2022/01/21 11:11:46;;;;;;;5.70;1.42;;;;;;;5.11;59.85;98796.97;4950915;28;20250;-85
2022/01/21 11:14:15;;;;;;;6.88;2.10;;;;;;;5.15;59.64;98801.59;4951344;28;20196;-86
2022/01/21 11:16:45;;;;;;;3.60;1.83;;;;;;;4.92;61.02;98791.22;4934614;28;20188;-84
2022/01/21 11:19:14;;;;;;;6.72;1.65;;;;;;;5.10;59.91;98787.59;4937815;28;20726;-84
2022/01/21 11:21:48;;;;;;;6.30;2.13;;;;;;;5.07;60.41;98797.28;4934518;28;20212;-84
2022/01/21 11:24:15;;;;;;;6.82;1.88;;;;;;;4.87;60.26;98789.13;4934119;28;20266;-85
2022/01/21 11:26:41;;;;;;;7.90;2.97;;;;;;;5.06;60.34;98800.84;4948208;28;20200;-84
2022/01/21 11:29:08;;;;;;;5.38;1.50;;;;;;;5.12;60.17;98803.72;4966521;28;20173;-84
2022/01/21 11:31:33;;;;;;;7.35;1.70;;;;;;;5.15;60.50;98800.81;4923803;28;20621;-84
2022/01/21 11:33:58;;;;;;;6.95;2.30;;;;;;;5.23;59.58;98803.34;4950952;28;20204;-84
2022/01/21 11:36:25;;;;;;;12.88;4.05;;;;;;;5.29;59.52;98800.06;4923255;28;20362;-84
2022/01/21 11:38:55;;;;;;;5.15;2.13;;;;;;;5.31;59.71;98792.94;4951752;28;20212;-85
2022/01/21 11:41:21;;;;;;;5.70;1.83;;;;;;;5.38;58.31;98793.91;4954079;28;20224;-85
2022/01/21 11:43:50;;;;;;;7.82;3.55;;;;;;;5.40;58.60;98783.41;4928370;28;20386;-85
2022/01/21 11:46:38;;;;;;;5.43;2.58;;;;;;;5.49;58.55;98779.78;4935569;28;20205;-84
2022/01/21 11:49:09;;;;;;;6.30;1.58;;;;;;;5.32;60.02;98781.66;4950551;28;20174;-84
2022/01/21 11:51:39;;;;;;;3.75;1.45;;;;;;;5.38;59.89;98781.00;4940560;28;20360;-84
2022/01/21 11:54:23;;;;;;;7.78;3.33;;;;;;;5.42;59.14;98776.28;4922031;28;20720;-84
2022/01/21 11:56:56;;;;;;;7.68;2.55;;;;;;;5.64;59.65;98779.84;4944347;28;20197;-84
2022/01/21 11:59:30;;;;;;;6.88;3.25;;;;;;;5.44;59.92;98780.28;4939249;28;20273;-84
2022/01/21 12:01:56;;;;;;;9.35;3.85;;;;;;;5.55;60.09;98779.13;4938143;28;20299;-85
2022/01/21 12:04:30;;;;;;;13.77;5.65;;;;;;;5.40;61.11;98784.19;4953418;28;20228;-85
2022/01/21 12:06:57;;;;;;;8.85;2.25;;;;;;;5.51;60.63;98775.25;4969177;28;20184;-84
2022/01/21 12:10:04;;;;;;;6.47;1.48;;;;;;;5.32;60.55;98767.94;4945746;28;20252;-84
2022/01/21 12:12:50;;;;;;;6.55;2.50;;;;;;;5.32;61.04;98773.91;4892199;28;20203;-84
2022/01/21 12:20:45;;;;;;;7.28;1.95;;;;;;;5.55;60.42;98760.19;4897637;28;20319;-84
2022/01/21 12:23:18;;;;;;;5.20;1.70;;;;;;;5.30;61.37;98764.75;4874381;28;20117;-84
2022/01/21 12:26:08;;;;;;;6.10;2.00;;;;;;;5.31;61.18;98761.16;4867291;28;20212;-84
2022/01/21 12:28:44;;;;;;;7.10;1.85;;;;;;;5.47;60.71;98761.06;4895363;28;20284;-84
2022/01/21 12:31:12;;;;;;;4.53;1.50;;;;;;;5.41;60.45;98754.78;4886686;28;20658;-84
2022/01/21 12:34:03;;;;;;;4.05;1.20;;;;;;;5.30;61.47;98757.78;4891532;28;20624;-84
2022/01/21 12:36:32;;;;;;;6.18;1.88;;;;;;;5.44;60.66;98754.47;4891077;28;20184;-84
2022/01/21 12:41:24;;;;;;;6.03;1.40;;;;;;;5.54;59.97;98764.56;4908716;28;20745;-84